Time;durP1;ratioP1;P1;durP2;ratioP2;P2;SDS_P1;SDS_P2;PMS_P1;PMS_P2;Temp;Humidity;BMP_temperature;BMP_pressure;BME280_temperature;BME280_humidity;BME280_pressure;Samples;Min_cycle;Max_cycle;Signal;HPM_P1;HPM_P2
2023/04/23 00:01:15;;;;;;;0.60;0.60;;;;;;;14.65;100.00;99454.50;5020240;28;20199;-66
2023/04/23 00:03:43;;;;;;;0.40;0.40;;;;;;;14.55;100.00;99455.81;5022583;28;20662;-66
2023/04/23 00:06:11;;;;;;;0.40;0.40;;;;;;;14.33;100.00;99460.28;5022701;28;20296;-66
2023/04/23 00:08:40;;;;;;;0.50;0.50;;;;;;;14.22;100.00;99457.28;5020102;28;20732;-66
2023/04/23 00:11:08;;;;;;;0.60;0.60;;;;;;;14.01;100.00;99460.81;5020316;28;20263;-65
2023/04/23 00:13:37;;;;;;;0.60;0.60;;;;;;;13.89;100.00;99458.75;5020118;28;20202;-66
2023/04/23 00:16:04;;;;;;;0.60;0.60;;;;;;;13.87;100.00;99456.25;5019898;28;20299;-66
2023/04/23 00:18:31;;;;;;;0.50;0.50;;;;;;;13.86;100.00;99454.56;5022902;28;20202;-66
2023/04/23 00:20:58;;;;;;;0.40;0.40;;;;;;;13.85;100.00;99452.91;5025879;28;20198;-66
2023/04/23 00:23:25;;;;;;;0.53;0.53;;;;;;;13.81;100.00;99460.81;5020500;28;20221;-66
2023/04/23 00:25:52;;;;;;;0.50;0.50;;;;;;;13.62;100.00;99451.28;5017733;28;20658;-66
2023/04/23 00:28:19;;;;;;;0.53;0.53;;;;;;;13.61;100.00;99457.34;5024884;28;20271;-66
2023/04/23 00:30:47;;;;;;;0.70;0.70;;;;;;;13.31;100.00;99456.00;5021533;28;20217;-66
2023/04/23 00:33:14;;;;;;;0.73;0.73;;;;;;;13.06;100.00;99457.84;5018101;28;20213;-66
2023/04/23 00:35:41;;;;;;;0.50;0.50;;;;;;;13.02;100.00;99456.31;5015433;28;20234;-66
2023/04/23 00:38:08;;;;;;;0.60;0.60;;;;;;;13.00;100.00;99463.25;5025659;28;20203;-66
2023/04/23 00:40:35;;;;;;;0.33;0.33;;;;;;;12.88;100.00;99462.00;5021640;28;20191;-66
2023/04/23 00:43:02;;;;;;;0.50;0.50;;;;;;;12.72;100.00;99457.47;5025823;28;20216;-66
2023/04/23 00:45:29;;;;;;;0.70;0.70;;;;;;;12.63;100.00;99466.41;5022933;28;20201;-66
2023/04/23 00:47:58;;;;;;;0.50;0.50;;;;;;;12.52;100.00;99464.22;5019954;28;20198;-66
2023/04/23 00:50:25;;;;;;;0.57;0.57;;;;;;;12.37;100.00;99464.78;5015098;28;20225;-66
2023/04/23 00:52:52;;;;;;;0.50;0.50;;;;;;;12.37;100.00;99464.78;5023861;28;20228;-66
2023/04/23 00:55:20;;;;;;;0.50;0.50;;;;;;;12.29;100.00;99460.78;5020514;28;20202;-66
2023/04/23 00:57:46;;;;;;;0.53;0.53;;;;;;;12.38;100.00;99463.88;5021807;28;20247;-66
2023/04/23 01:00:14;;;;;;;0.50;0.50;;;;;;;12.49;100.00;99473.75;5021004;28;20198;-66
2023/04/23 01:02:43;;;;;;;0.43;0.43;;;;;;;12.48;100.00;99478.06;5024179;28;20208;-66
2023/04/23 01:05:14;;;;;;;0.50;0.50;;;;;;;12.47;100.00;99471.25;5027226;28;20709;-66
2023/04/23 01:07:43;;;;;;;0.37;0.37;;;;;;;12.49;100.00;99469.47;5031029;28;20201;-65
2023/04/23 01:10:11;;;;;;;0.57;0.57;;;;;;;12.45;100.00;99473.03;5030473;28;20220;-66
2023/04/23 01:12:38;;;;;;;0.47;0.47;;;;;;;12.37;100.00;99448.50;5030629;28;20259;-66
2023/04/23 01:15:06;;;;;;;0.60;0.60;;;;;;;12.39;100.00;99470.69;5030694;28;20217;-66
2023/04/23 01:17:33;;;;;;;0.50;0.50;;;;;;;12.33;100.00;99468.34;5030848;28;20235;-66
2023/04/23 01:20:00;;;;;;;1.00;1.00;;;;;;;12.35;100.00;99476.00;5030637;28;20198;-66
2023/04/23 01:22:28;;;;;;;0.50;0.50;;;;;;;12.36;100.00;99469.97;5030818;28;20738;-66
2023/04/23 01:24:55;;;;;;;0.60;0.60;;;;;;;12.39;100.00;99468.13;5030563;28;20209;-64
2023/04/23 01:27:23;;;;;;;0.50;0.50;;;;;;;12.42;100.00;99468.00;5030696;28;20201;-66
2023/04/23 01:29:50;;;;;;;0.50;0.50;;;;;;;12.45;100.00;99473.03;5030616;28;20219;-66
2023/04/23 01:32:17;;;;;;;0.60;0.60;;;;;;;12.46;100.00;99469.59;5030878;28;20259;-66
2023/04/23 01:34:46;;;;;;;0.53;0.53;;;;;;;12.43;100.00;99474.84;5030837;28;20555;-66
2023/04/23 01:37:13;;;;;;;0.50;0.50;;;;;;;12.38;100.00;99476.72;5030109;28;20259;-66
2023/04/23 01:39:41;;;;;;;0.60;0.60;;;;;;;12.40;100.00;99474.94;5030778;28;20627;-66
2023/04/23 01:42:08;;;;;;;0.50;0.50;;;;;;;12.32;100.00;99481.25;5030580;28;20247;-66
2023/04/23 01:44:35;;;;;;;0.50;0.50;;;;;;;12.12;100.00;99476.81;5030457;28;20212;-65
2023/04/23 01:47:02;;;;;;;0.50;0.50;;;;;;;12.02;100.00;99478.84;5030195;28;20197;-65
2023/04/23 01:49:29;;;;;;;0.40;0.40;;;;;;;12.01;100.00;99476.34;5030587;28;20679;-66
2023/04/23 01:51:56;;;;;;;0.40;0.40;;;;;;;12.05;100.00;99477.94;5030541;28;20197;-66
2023/04/23 01:54:23;;;;;;;0.40;0.40;;;;;;;11.98;100.00;99482.44;5030330;28;20275;-66
2023/04/23 01:56:53;;;;;;;0.50;0.50;;;;;;;12.02;100.00;99483.16;5029554;28;20610;-66
2023/04/23 01:59:21;;;;;;;0.50;0.50;;;;;;;12.12;100.00;99489.66;5030533;28;20201;-66
2023/04/23 02:01:48;;;;;;;0.50;0.50;;;;;;;12.18;100.00;99488.63;5030383;28;20237;-66
2023/04/23 02:04:16;;;;;;;0.60;0.60;;;;;;;12.05;100.00;99467.66;5029968;28;20206;-65
2023/04/23 02:06:46;;;;;;;0.50;0.50;;;;;;;12.16;100.00;99480.94;5025136;28;20244;-66
2023/04/23 02:09:14;;;;;;;0.60;0.60;;;;;;;12.29;100.00;99494.22;5020126;28;20289;-65
2023/04/23 02:11:41;;;;;;;0.50;0.50;;;;;;;12.29;100.00;99492.47;5024585;28;20547;-66
2023/04/23 02:14:10;;;;;;;0.47;0.47;;;;;;;12.24;100.00;99485.84;5025726;28;20673;-66
2023/04/23 02:16:38;;;;;;;0.50;0.50;;;;;;;12.14;100.00;99476.78;5024240;28;20202;-66
2023/04/23 02:19:05;;;;;;;0.50;0.50;;;;;;;12.16;100.00;99491.22;5017834;28;20217;-66
2023/04/23 02:21:32;;;;;;;0.50;0.50;;;;;;;12.00;100.00;99488.38;5027047;28;20651;-66
2023/04/23 02:23:59;;;;;;;0.50;0.50;;;;;;;11.91;100.00;99493.81;5020541;28;20670;-66
2023/04/23 02:26:26;;;;;;;0.50;0.50;;;;;;;11.92;100.00;99492.09;5024886;28;20201;-65
2023/04/23 02:28:52;;;;;;;0.60;0.60;;;;;;;11.81;100.00;99489.03;5025877;28;20585;-66
2023/04/23 02:31:21;;;;;;;0.40;0.40;;;;;;;11.85;100.00;99490.63;5019581;28;20609;-66
2023/04/23 02:33:47;;;;;;;0.70;0.70;;;;;;;11.96;100.00;99493.66;5026056;28;20671;-66
2023/04/23 02:36:14;;;;;;;0.47;0.47;;;;;;;12.03;100.00;99493.41;5019102;28;20666;-66
2023/04/23 02:38:43;;;;;;;0.50;0.50;;;;;;;12.12;100.00;99494.78;5022929;28;20205;-65
2023/04/23 02:41:10;;;;;;;0.60;0.60;;;;;;;12.05;100.00;99483.88;5026700;28;20753;-66
2023/04/23 02:43:37;;;;;;;0.70;0.70;;;;;;;12.20;100.00;99495.38;5017238;28;20264;-65
2023/04/23 02:46:07;;;;;;;0.43;0.43;;;;;;;12.20;100.00;99495.38;5021782;28;20194;-66
2023/04/23 02:48:37;;;;;;;0.50;0.50;;;;;;;12.16;100.00;99498.09;5024334;28;20201;-66
2023/04/23 02:51:05;;;;;;;0.50;0.50;;;;;;;12.16;100.00;99496.38;5020128;28;20253;-66
2023/04/23 02:53:32;;;;;;;0.40;0.40;;;;;;;12.09;100.00;99503.47;5023217;28;20210;-66
2023/04/23 02:55:59;;;;;;;0.43;0.43;;;;;;;12.08;100.00;99508.66;5028591;28;20201;-66
2023/04/23 02:58:25;;;;;;;0.60;0.60;;;;;;;12.07;100.00;99502.69;5024111;28;20194;-66
2023/04/23 03:00:52;;;;;;;0.40;0.40;;;;;;;12.07;100.00;99507.81;5024246;28;20733;-66
2023/04/23 03:03:19;;;;;;;0.50;0.50;;;;;;;12.00;100.00;99503.78;5017606;28;20856;-66
2023/04/23 03:05:47;;;;;;;0.60;0.60;;;;;;;11.96;100.00;99507.34;5022300;28;20234;-65
2023/04/23 03:08:14;;;;;;;0.67;0.67;;;;;;;11.94;100.00;99516.00;5023011;28;20210;-66
2023/04/23 03:10:41;;;;;;;0.40;0.40;;;;;;;11.80;100.00;99518.16;5027724;28;20231;-66
2023/04/23 03:13:08;;;;;;;0.40;0.40;;;;;;;11.57;100.00;99518.88;5024617;28;20205;-66
2023/04/23 03:15:35;;;;;;;0.50;0.50;;;;;;;11.42;100.00;99519.38;5026662;28;20259;-66
2023/04/23 03:18:03;;;;;;;0.40;0.40;;;;;;;11.40;100.00;99514.31;5021780;28;20293;-66
2023/04/23 03:20:30;;;;;;;0.60;0.60;;;;;;;11.33;100.00;99520.53;5022521;28;20590;-66
2023/04/23 03:22:58;;;;;;;0.40;0.40;;;;;;;11.32;100.00;99520.56;5029650;28;20212;-66
2023/04/23 03:25:25;;;;;;;0.60;0.60;;;;;;;11.27;100.00;99522.44;5025664;28;20198;-66
2023/04/23 03:27:52;;;;;;;0.43;0.43;;;;;;;11.19;100.00;99516.69;5016239;28;20214;-66
2023/04/23 03:30:19;;;;;;;0.50;0.50;;;;;;;11.17;100.00;99521.03;5029255;28;20620;-66
2023/04/23 03:32:46;;;;;;;0.70;0.70;;;;;;;11.13;100.00;99525.44;5025551;28;20260;-66
2023/04/23 03:35:13;;;;;;;0.50;0.50;;;;;;;11.09;100.00;99526.41;5017094;28;20206;-65
2023/04/23 03:37:40;;;;;;;0.40;0.40;;;;;;;10.99;100.00;99525.00;5024871;28;20205;-66
2023/04/23 03:40:09;;;;;;;0.63;0.63;;;;;;;10.94;100.00;99522.56;5020739;28;20285;-66
2023/04/23 03:42:36;;;;;;;0.80;0.80;;;;;;;10.95;100.00;99520.84;5021452;28;20210;-66
2023/04/23 03:45:03;;;;;;;0.50;0.50;;;;;;;10.89;100.00;99521.84;5023416;28;20229;-66
2023/04/23 03:47:30;;;;;;;0.47;0.47;;;;;;;10.91;100.00;99524.41;5023348;28;20706;-66
2023/04/23 03:49:57;;;;;;;0.53;0.53;;;;;;;10.96;100.00;99523.38;5023749;28;20213;-66
2023/04/23 03:52:24;;;;;;;0.60;0.60;;;;;;;10.91;100.00;99498.75;5020638;28;20202;-66
2023/04/23 03:54:51;;;;;;;0.50;0.50;;;;;;;11.07;100.00;99535.88;5025026;28;20210;-66
2023/04/23 03:57:20;;;;;;;0.50;0.50;;;;;;;11.09;100.00;99526.41;5022267;28;20199;-65
2023/04/23 03:59:47;;;;;;;0.50;0.50;;;;;;;11.15;100.00;99525.41;5024943;28;20198;-66
2023/04/23 04:02:14;;;;;;;0.60;0.60;;;;;;;11.21;100.00;99528.59;5023398;28;20205;-66
2023/04/23 04:04:41;;;;;;;0.50;0.50;;;;;;;11.26;100.00;99526.72;5023190;28;20209;-66
2023/04/23 04:07:10;;;;;;;0.40;0.40;;;;;;;11.25;100.00;99530.19;5027814;28;20692;-66
2023/04/23 04:09:37;;;;;;;0.60;0.60;;;;;;;11.24;100.00;99537.94;5030984;28;20211;-66
2023/04/23 04:12:04;;;;;;;0.53;0.53;;;;;;;11.16;100.00;99520.19;5031159;28;20232;-66
2023/04/23 04:14:33;;;;;;;0.50;0.50;;;;;;;11.39;100.00;99543.44;5029046;28;20708;-65
2023/04/23 04:16:59;;;;;;;0.50;0.50;;;;;;;11.52;100.00;99549.88;5031634;28;20204;-65
2023/04/23 04:19:26;;;;;;;0.57;0.57;;;;;;;11.61;100.00;99548.72;5031440;28;20201;-66
2023/04/23 04:21:53;;;;;;;0.60;0.60;;;;;;;11.71;100.00;99554.44;5031258;28;20198;-66
2023/04/23 04:24:20;;;;;;;0.40;0.40;;;;;;;11.80;100.00;99560.13;5031607;28;20205;-66
2023/04/23 04:26:49;;;;;;;0.40;0.40;;;;;;;11.90;100.00;99563.22;5031324;28;20213;-66
2023/04/23 04:29:15;;;;;;;0.70;0.70;;;;;;;11.95;100.00;99563.94;5031403;28;20208;-66
2023/04/23 04:31:46;;;;;;;0.70;0.70;;;;;;;12.05;100.00;99562.72;5031236;28;20228;-66
2023/04/23 04:34:13;;;;;;;0.50;0.50;;;;;;;12.14;100.00;99574.41;5031525;28;20198;-66
2023/04/23 04:36:41;;;;;;;0.60;0.60;;;;;;;12.16;100.00;99575.19;5030184;28;20241;-66
2023/04/23 04:39:07;;;;;;;0.50;0.50;;;;;;;12.27;100.00;99580.81;5031062;28;20203;-66
2023/04/23 04:41:36;;;;;;;0.60;0.60;;;;;;;12.35;100.00;99579.66;5031758;28;20638;-66
2023/04/23 04:44:03;;;;;;;0.60;0.60;;;;;;;12.43;100.00;99587.97;5030743;28;20577;-66
2023/04/23 04:46:30;;;;;;;0.47;0.47;;;;;;;12.54;100.00;99592.72;5031077;28;20202;-66
2023/04/23 04:48:59;;;;;;;0.60;0.60;;;;;;;12.47;100.00;99574.09;5030816;28;20228;-66
2023/04/23 04:51:25;;;;;;;0.47;0.47;;;;;;;12.68;100.00;99587.94;5030915;28;20602;-66
2023/04/23 04:53:53;;;;;;;0.40;0.40;;;;;;;12.71;100.00;99592.13;5030961;28;20236;-66
2023/04/23 04:56:21;;;;;;;0.60;0.60;;;;;;;12.71;100.00;99597.25;5030771;28;20295;-66
2023/04/23 04:58:48;;;;;;;0.87;0.87;;;;;;;12.62;100.00;99583.84;5031645;28;20204;-66
2023/04/23 05:01:15;;;;;;;0.40;0.40;;;;;;;12.72;100.00;99604.09;5030915;28;20193;-66
2023/04/23 05:03:41;;;;;;;0.50;0.50;;;;;;;12.71;100.00;99602.41;5030603;28;20208;-66
2023/04/23 05:06:10;;;;;;;0.60;0.60;;;;;;;12.74;100.00;99602.28;5030164;28;20229;-66
2023/04/23 05:08:36;;;;;;;0.50;0.50;;;;;;;12.70;100.00;99591.28;5030323;28;20216;-66
2023/04/23 05:11:04;;;;;;;0.47;0.47;;;;;;;12.74;100.00;99604.88;5030134;28;20223;-66
2023/04/23 05:13:31;;;;;;;0.50;0.50;;;;;;;12.74;100.00;99598.00;5029451;28;20209;-66
2023/04/23 05:15:58;;;;;;;0.40;0.40;;;;;;;12.75;100.00;99598.84;5030674;28;20202;-66
2023/04/23 05:18:25;;;;;;;0.50;0.50;;;;;;;12.87;100.00;99603.53;5030866;28;20625;-66
2023/04/23 05:20:52;;;;;;;0.87;0.87;;;;;;;12.97;100.00;99602.31;5030665;28;20708;-66
2023/04/23 05:23:20;;;;;;;0.60;0.60;;;;;;;13.04;100.00;99606.34;5030291;28;20708;-66
2023/04/23 05:25:47;;;;;;;0.43;0.43;;;;;;;13.17;100.00;99611.91;5026693;28;20197;-66
2023/04/23 05:28:15;;;;;;;0.50;0.50;;;;;;;13.25;100.00;99612.47;5029855;28;20210;-66
2023/04/23 05:30:41;;;;;;;0.50;0.50;;;;;;;13.28;100.00;99618.31;5030573;28;20712;-66
2023/04/23 05:33:08;;;;;;;0.40;0.40;;;;;;;13.39;100.00;99613.63;5030460;28;20640;-66
2023/04/23 05:35:35;;;;;;;0.60;0.60;;;;;;;13.50;100.00;99614.06;5030288;28;20216;-66
2023/04/23 05:38:03;;;;;;;0.50;0.50;;;;;;;13.60;100.00;99615.34;5030850;28;20704;-66
2023/04/23 05:40:32;;;;;;;0.60;0.60;;;;;;;13.64;100.00;99609.19;5030730;28;20247;-65
2023/04/23 05:42:59;;;;;;;0.50;0.50;;;;;;;13.83;100.00;99629.91;5030366;28;20201;-66
2023/04/23 05:45:26;;;;;;;0.40;0.40;;;;;;;13.99;100.00;99625.00;5030402;28;20202;-66
2023/04/23 05:47:52;;;;;;;0.50;0.50;;;;;;;14.07;99.80;99622.94;5032563;28;20305;-66
2023/04/23 05:50:20;;;;;;;0.50;0.50;;;;;;;14.27;99.67;99622.13;5033982;28;20296;-66
2023/04/23 05:52:47;;;;;;;0.50;0.50;;;;;;;14.37;100.00;99611.41;5033826;28;20667;-66
2023/04/23 05:55:14;;;;;;;0.60;0.60;;;;;;;14.83;100.00;99633.47;5034477;28;20600;-66
2023/04/23 05:57:43;;;;;;;0.70;0.70;;;;;;;15.09;97.70;99642.63;5033906;28;20256;-66
2023/04/23 06:00:11;;;;;;;0.70;0.70;;;;;;;15.14;97.02;99620.03;5034802;28;20636;-66
2023/04/23 06:02:38;;;;;;;0.47;0.47;;;;;;;15.39;95.53;99635.25;5034604;28;20212;-66
2023/04/23 06:05:05;;;;;;;0.60;0.60;;;;;;;15.49;95.75;99637.38;5033491;28;20198;-66
2023/04/23 06:07:32;;;;;;;0.50;0.50;;;;;;;15.34;91.72;99645.81;5033365;28;20418;-69
2023/04/23 06:09:59;;;;;;;0.40;0.40;;;;;;;15.27;91.39;99649.59;5033622;28;20259;-66
2023/04/23 06:12:26;;;;;;;0.60;0.60;;;;;;;15.24;92.73;99645.41;5034445;28;20660;-66
2023/04/23 06:14:54;;;;;;;0.50;0.50;;;;;;;15.28;92.81;99633.19;5031411;28;20685;-66
2023/04/23 06:17:21;;;;;;;0.60;0.60;;;;;;;15.34;93.39;99632.06;5033523;28;20193;-67
2023/04/23 06:19:48;;;;;;;0.70;0.70;;;;;;;15.36;93.28;99631.06;5032959;28;20204;-66
2023/04/23 06:22:15;;;;;;;0.50;0.50;;;;;;;15.39;92.32;99641.25;5032005;28;20247;-66
2023/04/23 06:24:41;;;;;;;0.50;0.50;;;;;;;15.36;91.76;99646.56;5033705;28;20200;-66
2023/04/23 06:27:08;;;;;;;0.50;0.50;;;;;;;15.38;91.94;99642.16;5033690;28;20205;-66
2023/04/23 06:29:35;;;;;;;0.50;0.50;;;;;;;15.40;91.62;99642.09;5033904;28;20213;-66
2023/04/23 06:32:03;;;;;;;0.50;0.50;;;;;;;15.34;91.56;99647.56;5032486;28;20229;-66
2023/04/23 06:34:30;;;;;;;0.60;0.60;;;;;;;15.29;90.70;99647.75;5033566;28;20201;-66
2023/04/23 06:36:57;;;;;;;0.40;0.40;;;;;;;15.33;90.94;99644.13;5033491;28;20937;-65
2023/04/23 06:39:24;;;;;;;0.40;0.40;;;;;;;15.20;87.15;99641.28;5030119;28;20449;-63
2023/04/23 06:41:51;;;;;;;0.40;0.40;;;;;;;15.21;87.41;99648.13;5032275;28;20448;-64
2023/04/23 06:44:18;;;;;;;0.50;0.50;;;;;;;15.10;88.18;99647.75;5031291;28;20198;-64
2023/04/23 06:46:44;;;;;;;0.60;0.60;;;;;;;15.10;89.27;99644.31;5032140;28;20208;-64
2023/04/23 06:49:13;;;;;;;0.50;0.50;;;;;;;15.18;89.74;99642.25;5031952;28;20198;-63
2023/04/23 06:51:39;;;;;;;1.37;1.37;;;;;;;15.16;88.62;99650.06;5032225;28;20714;-64
2023/04/23 06:54:06;;;;;;;0.70;0.70;;;;;;;14.91;90.68;99640.88;5030386;28;20215;-63
2023/04/23 06:56:33;;;;;;;0.50;0.50;;;;;;;14.92;90.76;99645.16;5029911;28;20212;-64
2023/04/23 06:59:00;;;;;;;0.50;0.50;;;;;;;15.04;90.82;99645.44;5029421;28;20559;-64
2023/04/23 07:01:26;;;;;;;0.43;0.43;;;;;;;15.20;91.06;99645.59;5030331;28;20209;-64
2023/04/23 07:03:53;;;;;;;0.60;0.60;;;;;;;15.22;89.48;99648.94;5030573;28;20211;-64
2023/04/23 07:06:21;;;;;;;0.40;0.40;;;;;;;15.37;89.23;99637.94;5030429;28;20758;-63
2023/04/23 07:08:48;;;;;;;0.43;0.43;;;;;;;15.57;88.49;99645.59;5032388;28;20209;-64
2023/04/23 07:11:15;;;;;;;0.87;0.87;;;;;;;15.51;88.60;99645.09;5032412;28;20876;-63
2023/04/23 07:13:42;;;;;;;0.50;0.50;;;;;;;15.75;86.31;99649.94;5032654;28;20744;-64
2023/04/23 07:16:09;;;;;;;0.70;0.70;;;;;;;15.91;85.56;99633.69;5032100;28;20197;-64
2023/04/23 07:18:36;;;;;;;0.50;0.50;;;;;;;16.33;88.84;99643.69;5031812;28;20209;-64
2023/04/23 07:21:03;;;;;;;0.70;0.70;;;;;;;16.50;82.19;99649.69;5032158;28;20302;-64
2023/04/23 07:23:31;;;;;;;0.30;0.30;;;;;;;16.59;85.15;99649.25;5032161;28;20213;-65
2023/04/23 07:25:58;;;;;;;0.50;0.50;;;;;;;16.74;85.24;99645.03;5032128;28;20201;-64
2023/04/23 07:28:25;;;;;;;0.43;0.43;;;;;;;16.87;87.31;99642.66;5031931;28;20205;-64
2023/04/23 07:30:51;;;;;;;0.50;0.50;;;;;;;17.10;87.11;99639.69;5031549;28;20209;-64
2023/04/23 07:33:19;;;;;;;0.47;0.47;;;;;;;17.03;83.53;99639.19;5028838;28;20259;-64
2023/04/23 07:35:45;;;;;;;0.53;0.53;;;;;;;17.16;84.02;99629.84;5031659;28;20201;-65
2023/04/23 07:38:12;;;;;;;0.40;0.40;;;;;;;17.33;83.39;99622.03;5032070;28;20212;-64
2023/04/23 07:40:40;;;;;;;0.50;0.50;;;;;;;17.64;85.46;99633.34;5032193;28;20206;-65
2023/04/23 07:43:07;;;;;;;0.43;0.43;;;;;;;17.91;82.21;99638.72;5031853;28;20198;-64
2023/04/23 07:45:34;;;;;;;0.47;0.47;;;;;;;18.17;79.66;99641.53;5030608;28;20625;-64
2023/04/23 07:48:01;;;;;;;0.97;0.97;;;;;;;18.37;80.69;99635.19;5027754;28;20212;-64
2023/04/23 07:50:28;;;;;;;0.37;0.37;;;;;;;18.59;82.40;99637.38;5031330;28;20298;-64
2023/04/23 07:52:54;;;;;;;0.40;0.40;;;;;;;18.86;85.10;99641.78;5030936;28;20225;-65
2023/04/23 07:55:21;;;;;;;0.40;0.40;;;;;;;19.14;79.11;99634.91;5031168;28;20658;-65
2023/04/23 07:57:49;;;;;;;0.40;0.40;;;;;;;19.23;79.30;99629.97;5031578;28;20206;-65
2023/04/23 08:00:17;;;;;;;0.40;0.40;;;;;;;19.31;76.40;99637.31;5030939;28;20202;-64
2023/04/23 08:02:43;;;;;;;0.47;0.47;;;;;;;19.45;76.57;99626.09;5030320;28;21200;-65
2023/04/23 08:05:10;;;;;;;0.30;0.30;;;;;;;19.71;78.41;99627.88;5030642;28;20230;-65
2023/04/23 08:07:37;;;;;;;0.40;0.40;;;;;;;19.75;76.84;99624.13;5030864;28;20690;-64
2023/04/23 08:10:05;;;;;;;0.47;0.47;;;;;;;19.86;74.03;99634.69;5030982;28;20307;-65
2023/04/23 08:12:34;;;;;;;0.30;0.30;;;;;;;19.90;72.09;99628.34;5030675;28;20653;-65
2023/04/23 08:15:03;;;;;;;0.40;0.40;;;;;;;19.84;73.50;99629.56;5031084;28;20684;-65
2023/04/23 08:17:30;;;;;;;0.43;0.43;;;;;;;19.64;73.01;99622.22;5028035;28;20752;-65
2023/04/23 08:19:57;;;;;;;0.40;0.40;;;;;;;19.63;72.67;99628.34;5030961;28;20255;-65
2023/04/23 08:22:23;;;;;;;0.37;0.37;;;;;;;19.85;75.30;99626.03;5029931;28;20599;-64
2023/04/23 08:24:50;;;;;;;0.40;0.40;;;;;;;20.00;74.67;99620.78;5030668;28;20212;-65
2023/04/23 08:27:17;;;;;;;0.60;0.60;;;;;;;20.17;73.19;99620.50;5030794;28;20202;-65
2023/04/23 08:29:44;;;;;;;0.40;0.40;;;;;;;20.18;71.58;99628.22;5030363;28;20272;-64
2023/04/23 08:32:12;;;;;;;0.57;0.57;;;;;;;19.99;71.79;99629.53;5030850;28;20226;-65
2023/04/23 08:34:39;;;;;;;0.33;0.33;;;;;;;19.83;72.35;99627.91;5030383;28;20638;-65
2023/04/23 08:37:06;;;;;;;0.50;0.50;;;;;;;19.74;73.93;99620.69;5031186;28;20205;-65
2023/04/23 08:39:34;;;;;;;0.50;0.50;;;;;;;19.96;72.34;99619.31;5031161;28;20655;-64
2023/04/23 08:42:09;;;;;;;0.37;0.37;;;;;;;19.63;72.38;99614.50;5031163;28;20672;-65
2023/04/23 08:44:38;;;;;;;0.50;0.50;;;;;;;19.76;72.41;99613.63;5030688;28;20253;-65
2023/04/23 08:47:05;;;;;;;0.40;0.40;;;;;;;19.94;74.11;99606.38;5031102;28;20300;-65
2023/04/23 08:49:34;;;;;;;0.90;0.73;;;;;;;19.69;70.10;99614.94;5031008;28;20682;-64
2023/04/23 08:52:10;;;;;;;0.43;0.43;;;;;;;19.39;71.02;99614.25;5029580;28;20220;-65
2023/04/23 08:54:41;;;;;;;0.50;0.50;;;;;;;19.39;72.06;99603.84;5030258;28;20228;-64
2023/04/23 08:57:09;;;;;;;0.70;0.70;;;;;;;19.42;70.78;99614.09;5030519;28;20230;-64
2023/04/23 08:59:37;;;;;;;0.50;0.50;;;;;;;19.74;71.13;99609.47;5030523;28;20235;-65
2023/04/23 09:02:08;;;;;;;0.30;0.30;;;;;;;20.04;71.20;99606.63;5029262;28;20192;-65
2023/04/23 09:04:37;;;;;;;0.47;0.47;;;;;;;19.72;70.41;99599.13;5030053;28;20220;-65
2023/04/23 09:07:06;;;;;;;0.40;0.40;;;;;;;20.02;71.55;99593.72;5030161;28;20263;-65
2023/04/23 09:09:34;;;;;;;0.50;0.50;;;;;;;20.14;69.82;99603.31;5030613;28;20212;-65
2023/04/23 09:12:01;;;;;;;0.40;0.40;;;;;;;20.31;67.42;99600.47;5030573;28;20715;-64
2023/04/23 09:14:28;;;;;;;0.30;0.30;;;;;;;19.74;68.04;99594.66;5030745;28;20267;-65
2023/04/23 09:16:55;;;;;;;0.30;0.30;;;;;;;19.59;71.29;99585.25;5030371;28;20204;-65
2023/04/23 09:19:23;;;;;;;0.30;0.30;;;;;;;19.84;72.85;99580.13;5030882;28;20692;-65
2023/04/23 09:21:52;;;;;;;0.43;0.43;;;;;;;19.88;70.47;99592.00;5033119;28;20697;-65
2023/04/23 09:24:22;;;;;;;0.43;0.43;;;;;;;20.06;68.07;99589.16;5037087;28;20657;-64
2023/04/23 09:26:50;;;;;;;0.50;0.50;;;;;;;19.93;67.08;99589.94;5036317;28;20206;-64
2023/04/23 09:29:18;;;;;;;0.40;0.40;;;;;;;19.88;62.88;99596.38;5036908;28;20693;-65
2023/04/23 09:31:49;;;;;;;0.60;0.60;;;;;;;20.05;63.00;99577.06;5036542;28;20206;-65
2023/04/23 09:34:16;;;;;;;0.30;0.30;;;;;;;20.28;61.97;99589.41;5034979;28;20238;-65
2023/04/23 09:36:44;;;;;;;0.30;0.30;;;;;;;20.42;61.45;99582.34;5036659;28;20207;-65
2023/04/23 09:39:17;;;;;;;0.50;0.50;;;;;;;20.45;59.28;99591.75;5036824;28;20204;-65
2023/04/23 09:41:45;;;;;;;0.40;0.40;;;;;;;20.53;60.57;99581.63;5037264;28;20208;-65
2023/04/23 09:44:12;;;;;;;0.30;0.30;;;;;;;20.69;59.00;99574.41;5035611;28;20197;-65
2023/04/23 09:46:41;;;;;;;0.50;0.50;;;;;;;20.65;60.46;99570.34;5036985;28;20212;-65
2023/04/23 09:49:09;;;;;;;0.47;0.47;;;;;;;20.59;58.89;99575.16;5036519;28;20274;-66
2023/04/23 09:51:37;;;;;;;0.50;0.50;;;;;;;20.43;63.74;99567.56;5036902;28;20736;-65
2023/04/23 09:54:05;;;;;;;0.60;0.60;;;;;;;20.48;60.28;99565.50;5036196;28;20566;-65
2023/04/23 09:56:34;;;;;;;0.40;0.40;;;;;;;20.38;60.66;99564.44;5036290;28;20205;-64
2023/04/23 09:59:00;;;;;;;0.30;0.30;;;;;;;20.34;61.30;99557.75;5036635;28;20209;-65
2023/04/23 10:01:30;;;;;;;0.40;0.40;;;;;;;20.17;63.16;99555.41;5036203;28;20204;-64
2023/04/23 10:03:57;;;;;;;0.60;0.60;;;;;;;20.12;63.39;99540.13;5036041;28;20201;-65
2023/04/23 10:06:31;;;;;;;0.40;0.40;;;;;;;20.42;65.02;99545.03;5036237;28;20679;-65
2023/04/23 10:08:58;;;;;;;0.40;0.40;;;;;;;20.53;64.60;99539.94;5036698;28;20689;-65
2023/04/23 10:11:25;;;;;;;0.40;0.40;;;;;;;20.67;62.51;99546.81;5036142;28;20210;-65
2023/04/23 10:13:54;;;;;;;0.37;0.37;;;;;;;20.62;58.74;99547.13;5035917;28;20310;-64
2023/04/23 10:16:22;;;;;;;0.30;0.30;;;;;;;20.41;61.27;99544.22;5035682;28;20287;-64
2023/04/23 10:18:51;;;;;;;0.50;0.50;;;;;;;20.14;60.05;99527.00;5036153;28;20302;-65
2023/04/23 10:21:20;;;;;;;0.47;0.47;;;;;;;20.38;60.06;99538.41;5034937;28;20695;-65
2023/04/23 10:23:50;;;;;;;0.50;0.50;;;;;;;20.14;59.22;99527.81;5034886;28;20200;-65
2023/04/23 10:26:20;;;;;;;0.40;0.40;;;;;;;20.40;60.72;99528.69;5036040;28;20201;-65
2023/04/23 10:28:48;;;;;;;0.50;0.50;;;;;;;20.67;61.57;99523.38;5035764;28;20197;-65
2023/04/23 10:31:19;;;;;;;0.40;0.40;;;;;;;20.37;61.62;99515.88;5036380;28;20634;-65
2023/04/23 10:33:49;;;;;;;0.37;0.37;;;;;;;20.28;59.61;99514.75;5033580;28;20224;-64
2023/04/23 10:36:17;;;;;;;0.40;0.40;;;;;;;20.35;60.36;99502.16;5033237;28;20214;-65
2023/04/23 10:38:46;;;;;;;0.37;0.37;;;;;;;20.61;61.51;99498.59;5032426;28;20676;-65
2023/04/23 10:41:17;;;;;;;0.40;0.40;;;;;;;20.89;60.36;99503.53;5028836;28;20739;-65
2023/04/23 10:43:44;;;;;;;0.40;0.40;;;;;;;21.10;60.80;99495.97;5033134;28;20248;-65
2023/04/23 10:46:31;;;;;;;0.40;0.40;;;;;;;20.90;57.73;99505.16;5033214;28;20219;-64
2023/04/23 10:49:08;;;;;;;0.30;0.30;;;;;;;20.58;57.34;99498.78;5032610;28;20200;-64
2023/04/23 10:51:35;;;;;;;0.40;0.40;;;;;;;20.30;60.21;99481.63;5032360;28;20213;-65
2023/04/23 10:54:05;;;;;;;0.40;0.40;;;;;;;20.53;59.40;99482.66;5032523;28;20690;-65
2023/04/23 10:56:32;;;;;;;0.50;0.50;;;;;;;20.64;60.24;99482.75;5032607;28;20212;-64
2023/04/23 10:58:59;;;;;;;0.47;0.47;;;;;;;20.66;59.43;99477.41;5032235;28;20211;-66
2023/04/23 11:01:29;;;;;;;0.50;0.50;;;;;;;20.60;56.61;99477.84;5032749;28;20617;-65
2023/04/23 11:03:57;;;;;;;0.50;0.50;;;;;;;20.51;57.79;99471.50;5031343;28;20197;-65
2023/04/23 11:06:51;;;;;;;0.40;0.40;;;;;;;20.59;58.29;99478.78;5032396;28;20314;-65
2023/04/23 11:09:38;;;;;;;0.50;0.50;;;;;;;20.62;54.42;99474.19;5031885;28;20198;-64
2023/04/23 11:12:10;;;;;;;0.40;0.40;;;;;;;20.68;56.32;99463.31;5032624;28;20211;-65
2023/04/23 11:14:43;;;;;;;0.40;0.40;;;;;;;20.82;54.98;99465.81;5029524;28;20207;-64
2023/04/23 11:17:12;;;;;;;0.40;0.40;;;;;;;20.50;54.61;99464.63;5032300;28;20202;-64
2023/04/23 11:19:42;;;;;;;0.33;0.33;;;;;;;20.63;56.57;99442.00;5032473;28;20239;-65
2023/04/23 11:22:15;;;;;;;0.50;0.50;;;;;;;20.97;54.57;99458.66;5032405;28;20734;-65
2023/04/23 11:24:44;;;;;;;0.50;0.50;;;;;;;21.12;57.21;99457.59;5032455;28;20221;-65
2023/04/23 11:27:13;;;;;;;0.40;0.40;;;;;;;20.94;54.22;99459.72;5032079;28;20280;-65
2023/04/23 11:29:41;;;;;;;0.50;0.50;;;;;;;20.97;54.41;99452.63;5031244;28;20205;-65
2023/04/23 11:32:11;;;;;;;0.60;0.60;;;;;;;21.11;55.23;99457.69;5031510;28;20212;-65